Terminal Aerodrome Forecast
Issued by NWS

Home | Current Version | Previous Version | Text Only | Print | Product List | Glossary On
Versions: 1 2 3 4 5 6 7 8 9 10 11 12
000
FTUS43 KJKL 230500
TAFSME
TAF
KSME 230532Z 2306/2406 17004KT P6SM BKN050 BKN100
     FM231400 15004KT P6SM OVC050
     FM232000 15009KT 5SM -SHRA OVC025
     FM232300 15010G20KT 3SM SHRA OVC015=

USA.gov is the U.S. government's official web portal to all federal, state and local government web resources and services.